Time;durP1;ratioP1;P1;durP2;ratioP2;P2;SDS_P1;SDS_P2;PMS_P1;PMS_P2;Temp;Humidity;BMP_temperature;BMP_pressure;BME280_temperature;BME280_humidity;BME280_pressure;Samples;Min_cycle;Max_cycle;Signal;HPM_P1;HPM_P2
2021/03/31 00:01:36;;;;;;;2.72;1.62;;;11.50;99.90;;;;;;4413154;32;20518;-76
2021/03/31 00:04:01;;;;;;;1.45;1.30;;;11.60;99.90;;;;;;4413658;32;20125;-77
2021/03/31 00:06:27;;;;;;;4.00;1.52;;;11.60;99.90;;;;;;4413158;32;20073;-77
2021/03/31 00:08:52;;;;;;;4.20;2.33;;;11.60;99.90;;;;;;4413691;32;20087;-76
2021/03/31 00:11:18;;;;;;;0.80;0.80;;;11.50;99.90;;;;;;4413688;32;20113;-76
2021/03/31 00:13:44;;;;;;;7.85;2.20;;;11.50;99.90;;;;;;4416256;32;20070;-76
2021/03/31 00:16:09;;;;;;;0.85;0.82;;;11.60;99.90;;;;;;4416041;32;20129;-76
2021/03/31 00:18:36;;;;;;;4.00;2.55;;;11.50;99.90;;;;;;4415370;32;20125;-76
2021/03/31 00:21:03;;;;;;;4.10;2.03;;;11.40;99.90;;;;;;4415877;32;20057;-75
2021/03/31 00:23:29;;;;;;;9.18;1.10;;;11.40;99.90;;;;;;4415624;32;20070;-75
2021/03/31 00:25:55;;;;;;;0.90;0.90;;;11.20;99.90;;;;;;4414205;32;20527;-76
2021/03/31 00:28:22;;;;;;;1.33;1.17;;;11.20;99.90;;;;;;4415257;32;20081;-76
2021/03/31 00:30:48;;;;;;;0.98;0.95;;;11.20;99.90;;;;;;4415584;32;20074;-75
2021/03/31 00:33:15;;;;;;;5.10;1.90;;;11.20;99.90;;;;;;4415307;32;20311;-75
2021/03/31 00:35:41;;;;;;;3.28;1.77;;;11.10;99.90;;;;;;4415570;32;20129;-75
2021/03/31 00:38:07;;;;;;;3.05;1.92;;;11.20;99.90;;;;;;4415029;32;20085;-75
2021/03/31 00:40:38;;;;;;;3.28;1.40;;;11.20;99.90;;;;;;4415457;32;20074;-76
2021/03/31 00:43:04;;;;;;;5.10;2.17;;;11.20;99.90;;;;;;4416069;32;20074;-76
2021/03/31 00:45:30;;;;;;;2.85;1.40;;;11.20;99.90;;;;;;4400605;32;20075;-76
2021/03/31 00:47:55;;;;;;;1.90;1.25;;;11.10;99.90;;;;;;4400150;32;20412;-76
2021/03/31 00:50:21;;;;;;;3.12;1.80;;;11.10;99.90;;;;;;4400244;32;20468;-76
2021/03/31 00:52:48;;;;;;;0.95;0.82;;;11.10;99.90;;;;;;4400167;32;20074;-76
2021/03/31 00:55:15;;;;;;;3.58;1.20;;;10.90;99.90;;;;;;4400154;32;20099;-75
2021/03/31 00:57:41;;;;;;;7.57;3.10;;;10.70;99.90;;;;;;4399810;32;20570;-76
2021/03/31 01:00:09;;;;;;;0.80;0.80;;;10.50;99.90;;;;;;4399593;32;20078;-76
2021/03/31 01:02:36;;;;;;;3.05;1.80;;;10.70;99.90;;;;;;4400629;32;20062;-76
2021/03/31 01:05:06;;;;;;;1.05;0.95;;;10.60;99.90;;;;;;4399528;32;20074;-75
2021/03/31 01:07:32;;;;;;;2.30;1.23;;;10.40;99.90;;;;;;4398739;32;20069;-75
2021/03/31 01:09:57;;;;;;;5.53;2.35;;;10.40;99.90;;;;;;4399484;32;20135;-75
2021/03/31 01:12:32;;;;;;;1.67;1.25;;;10.40;99.90;;;;;;4400423;32;20066;-76
2021/03/31 01:15:09;;;;;;;1.58;1.30;;;10.50;99.90;;;;;;4400771;32;20077;-77
2021/03/31 01:17:44;;;;;;;3.40;1.17;;;10.60;99.90;;;;;;4387131;32;20394;-76
2021/03/31 01:20:44;;;;;;;3.90;1.92;;;10.40;99.90;;;;;;4399907;32;20473;-76
2021/03/31 01:23:31;;;;;;;2.87;1.33;;;10.30;99.90;;;;;;4390022;32;20070;-75
2021/03/31 01:26:06;;;;;;;4.50;1.37;;;10.30;99.90;;;;;;4387263;32;20129;-76
2021/03/31 01:28:45;;;;;;;1.98;1.25;;;10.30;99.90;;;;;;4399181;32;20133;-75
2021/03/31 01:31:32;;;;;;;1.50;1.27;;;10.30;99.90;;;;;;4399717;32;20062;-76
2021/03/31 01:34:07;;;;;;;1.33;1.23;;;10.50;99.90;;;;;;4400083;32;20062;-76
2021/03/31 01:36:34;;;;;;;2.28;1.55;;;10.60;99.90;;;;;;4400377;32;20078;-75
2021/03/31 01:39:03;;;;;;;0.90;0.90;;;10.50;99.90;;;;;;4399222;32;20127;-75
2021/03/31 01:41:30;;;;;;;1.10;0.98;;;10.30;99.90;;;;;;4399401;32;20062;-76
2021/03/31 01:43:58;;;;;;;2.33;1.65;;;10.40;99.90;;;;;;4399613;32;20480;-77
2021/03/31 01:46:27;;;;;;;1.58;1.37;;;10.50;99.90;;;;;;4400054;32;22403;-76
2021/03/31 01:48:55;;;;;;;1.10;1.02;;;10.50;99.90;;;;;;4399811;32;20518;-76
2021/03/31 01:51:21;;;;;;;1.52;1.10;;;10.40;99.90;;;;;;4399789;32;20121;-76
2021/03/31 01:53:48;;;;;;;0.77;0.75;;;10.20;99.90;;;;;;4400251;32;20082;-76
2021/03/31 01:56:15;;;;;;;1.58;1.10;;;10.10;99.90;;;;;;4398545;32;20066;-76
2021/03/31 01:58:42;;;;;;;2.12;1.08;;;10.00;99.90;;;;;;4399092;32;20066;-75
2021/03/31 02:01:10;;;;;;;2.15;1.50;;;10.00;99.90;;;;;;4399365;32;20061;-75
2021/03/31 02:03:37;;;;;;;2.80;1.30;;;9.90;99.90;;;;;;4399258;32;20628;-76
2021/03/31 02:06:03;;;;;;;2.70;1.70;;;9.90;99.90;;;;;;4398800;32;20498;-74
2021/03/31 02:08:29;;;;;;;1.87;1.17;;;10.00;99.90;;;;;;4399743;32;20066;-75
2021/03/31 02:10:56;;;;;;;7.40;1.33;;;10.00;99.90;;;;;;4398823;32;20130;-76
2021/03/31 02:13:22;;;;;;;1.92;1.12;;;10.00;99.90;;;;;;4398935;32;20425;-76
2021/03/31 02:15:50;;;;;;;2.42;1.35;;;10.00;99.90;;;;;;4399181;32;20129;-75
2021/03/31 02:18:18;;;;;;;1.55;1.42;;;10.00;99.90;;;;;;4399068;32;20586;-75
2021/03/31 02:20:51;;;;;;;3.65;1.83;;;10.00;99.90;;;;;;4399271;32;20066;-76
2021/03/31 02:23:17;;;;;;;4.65;1.35;;;10.00;99.90;;;;;;4398523;32;20078;-75
2021/03/31 02:25:43;;;;;;;1.60;1.35;;;10.10;99.90;;;;;;4398345;32;20133;-75
2021/03/31 02:28:08;;;;;;;1.75;1.25;;;10.10;99.90;;;;;;4398597;32;20078;-76
2021/03/31 02:30:34;;;;;;;4.12;1.92;;;10.00;99.90;;;;;;4398987;32;20061;-76
2021/03/31 02:33:03;;;;;;;1.10;1.02;;;10.00;99.90;;;;;;4398616;32;20087;-76
2021/03/31 02:35:31;;;;;;;3.03;1.30;;;9.90;99.90;;;;;;4398282;32;20075;-76
2021/03/31 02:38:05;;;;;;;2.25;1.62;;;9.90;99.90;;;;;;4398092;32;20125;-75
2021/03/31 02:40:31;;;;;;;1.25;0.80;;;9.80;99.90;;;;;;4398358;32;20069;-76
2021/03/31 02:42:59;;;;;;;2.62;1.08;;;9.80;99.90;;;;;;4399104;32;20408;-76
2021/03/31 02:45:26;;;;;;;1.20;0.98;;;9.90;99.90;;;;;;4398367;32;20070;-76
2021/03/31 02:47:53;;;;;;;0.93;0.90;;;9.90;99.90;;;;;;4399447;32;20078;-75
2021/03/31 02:50:21;;;;;;;1.35;1.02;;;9.80;99.90;;;;;;4398260;32;20070;-76
2021/03/31 02:52:49;;;;;;;3.28;1.15;;;9.80;99.90;;;;;;4398322;32;20445;-76
2021/03/31 02:55:16;;;;;;;1.55;1.15;;;9.70;99.90;;;;;;4397656;32;20074;-76
2021/03/31 02:57:43;;;;;;;1.48;1.10;;;9.50;99.90;;;;;;4398460;32;20531;-76
2021/03/31 03:00:10;;;;;;;1.67;1.15;;;9.30;99.90;;;;;;4398649;32;20062;-77
2021/03/31 03:02:38;;;;;;;2.45;1.83;;;9.30;99.90;;;;;;4398461;32;20079;-76
2021/03/31 03:05:05;;;;;;;1.20;1.12;;;9.30;99.90;;;;;;4399416;32;20113;-76
2021/03/31 03:07:33;;;;;;;11.27;3.00;;;9.40;99.90;;;;;;4398248;32;20491;-76
2021/03/31 03:09:59;;;;;;;1.37;0.98;;;9.50;99.90;;;;;;4397718;32;20062;-75
2021/03/31 03:12:25;;;;;;;2.75;1.62;;;9.50;99.90;;;;;;4397938;32;20066;-75
2021/03/31 03:14:52;;;;;;;1.48;1.37;;;9.40;99.90;;;;;;4398284;32;20086;-76
2021/03/31 03:17:18;;;;;;;2.10;1.45;;;9.50;99.90;;;;;;4398348;32;20113;-76
2021/03/31 03:19:45;;;;;;;4.70;1.62;;;9.50;99.90;;;;;;4398436;32;20066;-74
2021/03/31 03:22:12;;;;;;;2.00;1.20;;;9.50;99.90;;;;;;4398541;32;20086;-75
2021/03/31 03:24:41;;;;;;;2.15;1.23;;;9.40;99.90;;;;;;4397510;32;20523;-76
2021/03/31 03:27:07;;;;;;;8.55;1.55;;;9.30;99.90;;;;;;4398245;32;20083;-76
2021/03/31 03:29:33;;;;;;;6.72;2.22;;;9.30;99.90;;;;;;4398083;32;20113;-76
2021/03/31 03:31:59;;;;;;;3.37;0.93;;;9.10;99.90;;;;;;4399159;32;20069;-76
2021/03/31 03:34:25;;;;;;;2.60;1.52;;;9.00;99.90;;;;;;4398689;32;20425;-76
2021/03/31 03:36:51;;;;;;;1.37;0.62;;;9.10;99.90;;;;;;4398465;32;20130;-76
2021/03/31 03:39:18;;;;;;;3.72;1.87;;;9.20;99.90;;;;;;4397483;32;20062;-76
2021/03/31 03:41:44;;;;;;;1.23;1.10;;;9.20;99.90;;;;;;4398113;32;20070;-76
2021/03/31 03:44:10;;;;;;;4.07;1.80;;;9.30;99.90;;;;;;4398503;32;20083;-76
2021/03/31 03:46:36;;;;;;;3.92;2.12;;;9.30;99.90;;;;;;4400416;32;20086;-75
2021/03/31 03:49:04;;;;;;;2.65;1.85;;;9.20;99.90;;;;;;4400984;32;20085;-76
2021/03/31 03:51:31;;;;;;;3.30;1.87;;;9.10;99.90;;;;;;4400717;32;20515;-75
2021/03/31 03:53:57;;;;;;;1.85;1.17;;;9.10;99.90;;;;;;4400388;32;20066;-75
2021/03/31 03:56:23;;;;;;;2.42;1.40;;;9.00;99.90;;;;;;4400065;32;20069;-75
2021/03/31 03:58:49;;;;;;;1.52;1.30;;;8.90;99.90;;;;;;4400967;32;20065;-76
2021/03/31 04:01:14;;;;;;;1.48;1.35;;;8.80;99.90;;;;;;4400774;32;20061;-76
2021/03/31 04:03:40;;;;;;;2.45;1.02;;;8.70;99.90;;;;;;4400894;32;20074;-76
2021/03/31 04:06:07;;;;;;;2.78;1.52;;;8.70;99.90;;;;;;4401083;32;20121;-76
2021/03/31 04:08:34;;;;;;;3.17;1.52;;;8.60;99.90;;;;;;4400146;32;20065;-76
2021/03/31 04:11:00;;;;;;;2.10;1.17;;;8.60;99.90;;;;;;4400223;32;20129;-75
2021/03/31 04:13:29;;;;;;;1.77;1.62;;;8.70;99.90;;;;;;4400397;32;20491;-75
2021/03/31 04:16:02;;;;;;;1.65;1.25;;;8.90;99.90;;;;;;4400605;32;20129;-76
2021/03/31 04:18:29;;;;;;;2.62;1.62;;;8.80;99.90;;;;;;4400485;32;20864;-76
2021/03/31 04:20:58;;;;;;;2.58;1.52;;;8.90;99.90;;;;;;4400548;32;20085;-76
2021/03/31 04:23:24;;;;;;;2.17;1.15;;;8.90;99.90;;;;;;4400372;32;20507;-76
2021/03/31 04:25:50;;;;;;;1.48;1.30;;;9.00;99.90;;;;;;4400152;32;20070;-76
2021/03/31 04:28:19;;;;;;;22.08;1.23;;;8.90;99.90;;;;;;4401424;32;20061;-76
2021/03/31 04:30:45;;;;;;;1.58;1.48;;;8.80;99.90;;;;;;4400161;32;20090;-76
2021/03/31 04:33:11;;;;;;;4.50;1.62;;;8.90;99.90;;;;;;4400941;32;20066;-75
2021/03/31 04:35:37;;;;;;;1.42;1.25;;;9.00;99.90;;;;;;4400075;32;20417;-74
2021/03/31 04:38:12;;;;;;;5.28;1.25;;;8.90;99.90;;;;;;4400319;32;20073;-75
2021/03/31 04:40:56;;;;;;;3.90;2.37;;;8.70;99.90;;;;;;4399547;32;20070;-76
2021/03/31 04:43:24;;;;;;;2.70;1.23;;;8.50;99.90;;;;;;4400037;32;20089;-74
2021/03/31 04:45:49;;;;;;;1.67;1.25;;;8.50;99.90;;;;;;4400619;32;20130;-75
2021/03/31 04:48:15;;;;;;;1.95;1.37;;;8.50;99.90;;;;;;4400694;32;20066;-76
2021/03/31 04:50:41;;;;;;;10.85;1.00;;;8.40;99.90;;;;;;4400602;32;20113;-75
2021/03/31 04:53:07;;;;;;;0.93;0.93;;;8.40;99.90;;;;;;4400861;32;20083;-76
2021/03/31 04:55:32;;;;;;;6.68;1.83;;;8.60;99.90;;;;;;4398823;32;20101;-76
2021/03/31 04:57:58;;;;;;;0.98;0.80;;;8.60;99.90;;;;;;4398630;32;20058;-76
2021/03/31 05:00:23;;;;;;;0.80;0.80;;;8.70;99.90;;;;;;4400481;32;20515;-77
2021/03/31 05:02:49;;;;;;;9.50;1.35;;;8.70;99.90;;;;;;4394956;32;20089;-75
2021/03/31 05:05:15;;;;;;;3.92;1.23;;;8.70;99.90;;;;;;4400166;32;20066;-75
2021/03/31 05:07:40;;;;;;;3.42;1.67;;;8.70;99.90;;;;;;4399842;32;20113;-76
2021/03/31 05:10:06;;;;;;;3.85;1.33;;;8.60;99.90;;;;;;4399573;32;20073;-76
2021/03/31 05:12:32;;;;;;;2.70;1.33;;;8.70;99.90;;;;;;4393621;32;20134;-77
2021/03/31 05:14:57;;;;;;;6.55;1.92;;;8.80;99.90;;;;;;4404601;32;20134;-76
2021/03/31 05:17:23;;;;;;;62.62;1.52;;;8.80;99.90;;;;;;4415555;32;20086;-75
2021/03/31 05:19:49;;;;;;;22.60;2.03;;;8.80;99.90;;;;;;4404610;32;20136;-74
2021/03/31 05:22:14;;;;;;;1.23;1.12;;;8.80;99.90;;;;;;4399097;32;20167;-76
2021/03/31 05:24:40;;;;;;;14.55;3.03;;;8.70;99.90;;;;;;4400122;32;20420;-76
2021/03/31 05:27:06;;;;;;;2.10;1.10;;;8.70;99.90;;;;;;4399786;32;20676;-76
2021/03/31 05:29:32;;;;;;;36.15;3.25;;;8.60;99.90;;;;;;4401321;32;20533;-75
2021/03/31 05:31:58;;;;;;;4.03;1.67;;;8.60;99.90;;;;;;4402138;32;20062;-76
2021/03/31 05:34:24;;;;;;;1.37;0.90;;;8.60;99.90;;;;;;4399842;32;20133;-76
2021/03/31 05:36:50;;;;;;;1.00;1.00;;;8.70;99.90;;;;;;4399127;32;20062;-76
2021/03/31 05:39:15;;;;;;;3.37;1.10;;;8.70;99.90;;;;;;4398989;32;20086;-74
2021/03/31 05:41:41;;;;;;;2.33;1.77;;;8.90;99.90;;;;;;4399722;32;20407;-76
2021/03/31 05:44:08;;;;;;;8.43;1.95;;;9.00;99.90;;;;;;4399769;32;20121;-76
2021/03/31 05:46:36;;;;;;;1.52;1.42;;;9.20;99.90;;;;;;4399366;32;20078;-76
2021/03/31 05:49:02;;;;;;;16.42;3.08;;;9.30;99.90;;;;;;4399212;32;20501;-76
2021/03/31 05:51:28;;;;;;;2.30;1.85;;;9.30;99.90;;;;;;4399311;32;20065;-76
2021/03/31 05:53:53;;;;;;;13.60;1.23;;;9.40;99.90;;;;;;4399497;32;20067;-76
2021/03/31 05:56:20;;;;;;;3.35;1.45;;;9.60;99.90;;;;;;4398318;32;20078;-75
2021/03/31 05:58:45;;;;;;;3.28;1.33;;;9.60;99.90;;;;;;4398729;32;20061;-75
2021/03/31 06:01:11;;;;;;;1.65;0.90;;;9.60;99.90;;;;;;4399049;32;20170;-76
2021/03/31 06:03:37;;;;;;;0.95;0.93;;;9.70;99.90;;;;;;4399685;32;20067;-76
2021/03/31 06:06:02;;;;;;;1.10;1.00;;;9.80;99.90;;;;;;4398845;32;20069;-76
2021/03/31 06:08:29;;;;;;;1.15;1.05;;;9.80;99.90;;;;;;4397949;32;20074;-76
2021/03/31 06:10:59;;;;;;;0.82;0.82;;;10.00;99.90;;;;;;4400154;32;20401;-76
2021/03/31 06:13:24;;;;;;;34.25;3.28;;;10.10;99.90;;;;;;4398826;32;20087;-76
2021/03/31 06:15:50;;;;;;;0.98;0.82;;;10.20;99.90;;;;;;4398423;32;20066;-76
2021/03/31 06:18:17;;;;;;;5.05;1.83;;;10.30;99.90;;;;;;4399343;32;20073;-76
2021/03/31 06:20:58;;;;;;;1.60;1.10;;;10.40;99.90;;;;;;4399436;32;20125;-76
2021/03/31 06:24:11;;;;;;;1.17;0.85;;;10.40;99.90;;;;;;4399668;32;20518;-76
2021/03/31 06:26:39;;;;;;;0.82;0.82;;;10.50;99.90;;;;;;4387125;32;20095;-76
2021/03/31 06:29:07;;;;;;;1.87;1.23;;;10.60;99.90;;;;;;4386812;32;20121;-76
2021/03/31 06:31:36;;;;;;;1.20;1.10;;;10.70;99.90;;;;;;4398756;32;20464;-76
2021/03/31 06:34:04;;;;;;;6.15;1.87;;;10.80;99.90;;;;;;4398769;32;20096;-76
2021/03/31 06:36:41;;;;;;;1.33;1.05;;;10.90;99.90;;;;;;4397968;32;20422;-76
2021/03/31 06:39:31;;;;;;;1.60;1.02;;;10.90;99.90;;;;;;4397909;32;20196;-75
2021/03/31 06:42:01;;;;;;;0.55;0.55;;;10.90;99.90;;;;;;4387668;32;20598;-76
2021/03/31 06:44:34;;;;;;;6.22;1.40;;;11.10;99.90;;;;;;4398290;32;20070;-76
2021/03/31 06:47:08;;;;;;;4.22;1.73;;;11.20;99.90;;;;;;4399607;32;20087;-76
2021/03/31 06:49:33;;;;;;;1.80;0.93;;;11.20;99.90;;;;;;4398076;32;20178;-76
2021/03/31 06:52:07;;;;;;;1.30;1.00;;;11.30;99.90;;;;;;4398408;32;20069;-76
2021/03/31 06:54:42;;;;;;;1.02;0.73;;;11.50;99.90;;;;;;4398230;32;20600;-76
2021/03/31 06:57:08;;;;;;;3.55;2.10;;;11.60;99.90;;;;;;4400587;32;20070;-76
2021/03/31 06:59:34;;;;;;;4.03;2.08;;;11.70;99.90;;;;;;4398065;32;20074;-76
2021/03/31 07:02:02;;;;;;;6.60;1.17;;;11.90;99.90;;;;;;4390105;32;20094;-76
2021/03/31 07:04:29;;;;;;;1.12;1.00;;;12.10;99.90;;;;;;4382879;32;20414;-76
2021/03/31 07:07:07;;;;;;;1.08;1.00;;;12.10;99.90;;;;;;4387707;32;20058;-76
2021/03/31 07:09:35;;;;;;;2.03;1.45;;;12.20;99.90;;;;;;4399606;32;20474;-76
2021/03/31 07:12:00;;;;;;;1.77;1.45;;;12.20;99.90;;;;;;4398013;32;20082;-76
2021/03/31 07:14:27;;;;;;;1.50;1.30;;;12.30;99.90;;;;;;4397928;32;20117;-76
2021/03/31 07:16:53;;;;;;;1.25;0.85;;;12.40;99.90;;;;;;4398391;32;20061;-76
2021/03/31 07:19:20;;;;;;;4.32;0.68;;;12.60;99.90;;;;;;4398259;32;20156;-76
2021/03/31 07:21:46;;;;;;;1.20;0.80;;;12.60;99.90;;;;;;4401813;32;20089;-76
2021/03/31 07:24:14;;;;;;;0.90;0.90;;;12.60;99.90;;;;;;4400750;32;20411;-76
2021/03/31 07:26:43;;;;;;;6.78;2.33;;;12.70;99.90;;;;;;4399936;32;20475;-76
2021/03/31 07:29:10;;;;;;;0.70;0.70;;;12.90;99.90;;;;;;4400776;32;20130;-75
2021/03/31 07:31:36;;;;;;;1.45;0.90;;;13.10;99.90;;;;;;4400990;32;20070;-76
2021/03/31 07:34:11;;;;;;;2.97;0.80;;;13.30;99.90;;;;;;4402124;32;20125;-76
2021/03/31 07:36:39;;;;;;;5.40;2.35;;;13.50;99.90;;;;;;4401529;32;20070;-76
2021/03/31 07:39:06;;;;;;;5.85;1.67;;;13.60;99.90;;;;;;4400622;32;20523;-76
2021/03/31 07:41:36;;;;;;;16.20;2.28;;;13.70;99.90;;;;;;4400652;32;20058;-76
2021/03/31 07:44:03;;;;;;;3.03;1.23;;;13.70;99.90;;;;;;4400957;32;20121;-76
2021/03/31 07:46:32;;;;;;;1.00;0.73;;;13.90;99.90;;;;;;4407610;32;20417;-76
2021/03/31 07:48:58;;;;;;;3.17;1.33;;;14.10;99.90;;;;;;4416148;32;20065;-76
2021/03/31 07:51:27;;;;;;;3.42;1.05;;;14.20;99.90;;;;;;4415936;32;20139;-76
2021/03/31 07:53:54;;;;;;;1.75;1.08;;;14.30;99.90;;;;;;4414957;32;20070;-76
2021/03/31 07:56:31;;;;;;;3.37;1.12;;;14.50;99.90;;;;;;4415489;32;20063;-76
2021/03/31 07:59:09;;;;;;;4.03;1.73;;;14.70;99.90;;;;;;4404874;32;20597;-76
2021/03/31 08:01:42;;;;;;;3.58;0.88;;;14.80;99.90;;;;;;4400439;32;20113;-76
2021/03/31 08:04:09;;;;;;;2.08;1.08;;;14.90;99.90;;;;;;4399987;32;20082;-76
2021/03/31 08:06:37;;;;;;;31.25;2.10;;;15.00;99.90;;;;;;4401046;32;20066;-76
2021/03/31 08:09:09;;;;;;;1.02;0.85;;;15.10;99.90;;;;;;4401177;32;20116;-76
2021/03/31 08:11:44;;;;;;;4.80;2.50;;;15.20;99.90;;;;;;4400028;32;20074;-76
2021/03/31 08:14:12;;;;;;;3.65;1.25;;;15.30;99.90;;;;;;4400062;32;20487;-76
2021/03/31 08:16:43;;;;;;;9.65;2.25;;;15.40;99.90;;;;;;4400071;32;20075;-76
2021/03/31 08:19:15;;;;;;;;;;;15.50;99.90;;;;;;4400439;32;20085;-75
2021/03/31 08:21:43;;;;;;;1.00;0.95;;;15.60;99.90;;;;;;4401600;32;19958;-75
2021/03/31 08:24:10;;;;;;;2.92;1.40;;;15.70;99.90;;;;;;4400541;32;20070;-74
2021/03/31 08:26:57;;;;;;;4.28;1.20;;;15.80;99.90;;;;;;4399337;32;20070;-75
2021/03/31 08:29:25;;;;;;;1.77;0.90;;;15.80;99.90;;;;;;4400910;32;20066;-75
2021/03/31 08:31:56;;;;;;;1.67;1.25;;;15.90;99.90;;;;;;4401155;32;20070;-75
2021/03/31 08:34:23;;;;;;;;;;;16.20;99.90;;;;;;4400646;32;20091;-75
2021/03/31 08:36:49;;;;;;;1.92;1.02;;;16.40;99.90;;;;;;4401161;32;19969;-75
2021/03/31 08:39:15;;;;;;;4.18;1.40;;;16.60;99.90;;;;;;4400103;32;20103;-75
2021/03/31 08:41:43;;;;;;;3.33;1.55;;;16.80;99.90;;;;;;4400774;32;20194;-76
2021/03/31 08:44:12;;;;;;;1.52;1.42;;;17.00;99.90;;;;;;4399586;32;20375;-76
2021/03/31 08:46:39;;;;;;;0.77;0.77;;;17.10;99.90;;;;;;4399833;32;20074;-76
2021/03/31 08:49:04;;;;;;;8.55;1.27;;;17.30;99.60;;;;;;4399976;32;20074;-75
2021/03/31 08:51:30;;;;;;;3.20;1.55;;;17.40;99.00;;;;;;4399904;32;20126;-75
2021/03/31 08:54:01;;;;;;;7.30;1.95;;;17.50;98.10;;;;;;4399737;32;20160;-75
2021/03/31 08:56:28;;;;;;;1.52;1.37;;;17.60;97.00;;;;;;4399226;32;20135;-75
2021/03/31 08:58:56;;;;;;;1.65;0.90;;;17.80;96.60;;;;;;4399803;32;20121;-75
2021/03/31 09:01:27;;;;;;;1.95;1.27;;;17.90;96.20;;;;;;4399708;32;20347;-75
2021/03/31 09:04:11;;;;;;;5.20;2.10;;;18.10;95.70;;;;;;4399206;32;20070;-75
2021/03/31 09:06:37;;;;;;;2.47;1.58;;;18.20;95.20;;;;;;4399264;32;20113;-75
2021/03/31 09:09:03;;;;;;;1.48;1.15;;;18.20;94.60;;;;;;4399869;32;20070;-74
2021/03/31 09:11:30;;;;;;;1.27;1.17;;;18.40;95.80;;;;;;4384885;32;20160;-76
2021/03/31 09:13:55;;;;;;;1.95;1.35;;;18.60;96.00;;;;;;4384584;32;20067;-76
2021/03/31 09:16:21;;;;;;;4.07;2.05;;;18.80;96.00;;;;;;4384367;32;20090;-74
2021/03/31 09:18:50;;;;;;;4.43;1.90;;;19.00;95.20;;;;;;4385226;32;20082;-75
2021/03/31 09:21:26;;;;;;;3.90;1.95;;;19.20;93.40;;;;;;4384724;32;20123;-75
2021/03/31 09:23:52;;;;;;;4.30;1.87;;;19.30;95.00;;;;;;4384652;32;20099;-74
2021/03/31 09:26:21;;;;;;;1.85;1.27;;;19.50;92.30;;;;;;4383737;32;20491;-74
2021/03/31 09:28:47;;;;;;;1.40;1.30;;;19.70;87.90;;;;;;4384302;32;20083;-76
2021/03/31 09:31:21;;;;;;;2.03;1.30;;;19.90;85.70;;;;;;4384580;32;20066;-76
2021/03/31 09:33:47;;;;;;;2.90;1.73;;;20.00;88.50;;;;;;4384604;32;20562;-75
2021/03/31 09:36:16;;;;;;;8.02;1.55;;;20.30;88.60;;;;;;4384218;32;20086;-76
2021/03/31 09:38:42;;;;;;;6.00;2.60;;;20.40;86.40;;;;;;4381828;32;96161;-77
2021/03/31 09:41:08;;;;;;;7.43;2.55;;;20.70;83.40;;;;;;4384315;32;20062;-76
2021/03/31 09:43:35;;;;;;;3.37;1.87;;;20.70;78.80;;;;;;4384888;32;20058;-75
2021/03/31 09:46:02;;;;;;;2.65;1.75;;;20.90;73.70;;;;;;4391369;32;20153;-76
2021/03/31 09:48:28;;;;;;;9.27;2.45;;;21.00;72.80;;;;;;4414410;32;20160;-76
2021/03/31 09:50:53;;;;;;;1.73;1.23;;;21.10;73.70;;;;;;4414781;32;20069;-76
2021/03/31 09:53:24;;;;;;;2.22;1.87;;;21.20;70.00;;;;;;4414405;32;20079;-76
2021/03/31 09:55:51;;;;;;;6.93;2.97;;;21.30;65.60;;;;;;4413602;32;20062;-76
2021/03/31 09:58:23;;;;;;;4.82;2.28;;;21.40;65.70;;;;;;4407593;32;20126;-76
2021/03/31 10:00:49;;;;;;;3.28;2.22;;;21.50;65.30;;;;;;4400867;32;20078;-75
2021/03/31 10:03:16;;;;;;;1.90;1.55;;;21.80;65.40;;;;;;4399285;32;20058;-77
2021/03/31 10:05:41;;;;;;;4.82;2.92;;;21.60;64.40;;;;;;4398876;32;20132;-75
2021/03/31 10:08:10;;;;;;;2.78;2.00;;;21.60;63.50;;;;;;4398648;32;20078;-76
2021/03/31 10:10:42;;;;;;;2.50;1.70;;;21.70;63.60;;;;;;4398571;32;20061;-76
2021/03/31 10:13:08;;;;;;;5.15;2.15;;;21.80;62.50;;;;;;4398839;32;20079;-75
2021/03/31 10:15:34;;;;;;;1.67;1.15;;;22.00;63.20;;;;;;4398973;32;20058;-77
2021/03/31 10:18:00;;;;;;;1.65;1.50;;;22.30;63.20;;;;;;4399239;32;20105;-75
2021/03/31 10:20:31;;;;;;;8.32;2.05;;;22.20;60.70;;;;;;4399838;32;20519;-75
2021/03/31 10:22:56;;;;;;;6.47;2.70;;;22.00;60.80;;;;;;4399281;32;20090;-75
2021/03/31 10:25:26;;;;;;;2.28;2.05;;;22.10;60.60;;;;;;4399402;32;20067;-76
2021/03/31 10:27:52;;;;;;;2.08;1.35;;;22.30;60.90;;;;;;4398516;32;20086;-77
2021/03/31 10:30:34;;;;;;;5.10;2.00;;;22.70;59.30;;;;;;4399373;32;20053;-76
2021/03/31 10:33:01;;;;;;;5.15;1.55;;;22.90;59.90;;;;;;4399410;32;20411;-76
2021/03/31 10:35:50;;;;;;;3.35;1.85;;;23.10;59.10;;;;;;4398868;32;20062;-76
2021/03/31 10:38:38;;;;;;;2.00;1.80;;;23.20;58.60;;;;;;4398468;32;20115;-76
2021/03/31 10:46:47;;;;;;;1.17;1.12;;;23.60;58.70;;;;;;4398504;32;20061;-76
2021/03/31 10:48:06;;;;;;;5.68;2.17;;;23.40;58.80;;;;;;4388157;32;20075;-77
2021/03/31 10:51:59;;;;;;;2.58;1.67;;;23.70;57.80;;;;;;4398470;32;20457;-76
2021/03/31 10:54:27;;;;;;;3.97;2.03;;;23.90;57.20;;;;;;4398054;32;20172;-75
2021/03/31 10:57:05;;;;;;;6.95;1.90;;;24.20;56.60;;;;;;4399093;32;20054;-76
2021/03/31 10:59:31;;;;;;;2.15;1.37;;;24.30;55.70;;;;;;4398463;32;20114;-76
2021/03/31 11:01:56;;;;;;;2.30;1.87;;;24.20;55.30;;;;;;4399209;32;20074;-76
2021/03/31 11:04:22;;;;;;;4.82;1.48;;;24.10;54.80;;;;;;4398920;32;20058;-76
2021/03/31 11:06:47;;;;;;;3.75;2.33;;;24.10;55.30;;;;;;4391917;32;20055;-76
2021/03/31 11:09:13;;;;;;;4.55;1.10;;;24.40;55.00;;;;;;4398382;32;20079;-76
2021/03/31 11:11:38;;;;;;;2.83;2.12;;;24.40;54.40;;;;;;4399557;32;20070;-76
2021/03/31 11:14:04;;;;;;;1.52;1.42;;;24.60;55.10;;;;;;4398000;32;20062;-76
2021/03/31 11:16:29;;;;;;;2.35;1.65;;;24.70;53.80;;;;;;4399091;32;20098;-76
2021/03/31 11:25:34;;;;;;;1.25;0.93;;;24.90;53.00;;;;;;4397951;32;20146;-77
2021/03/31 11:26:07;;;;;;;1.58;1.33;;;24.90;54.20;;;;;;4383374;32;20066;-76
2021/03/31 11:26:53;;;;;;;1.65;1.55;;;25.30;52.80;;;;;;4390214;32;20066;-76
2021/03/31 11:29:18;;;;;;;4.47;1.65;;;25.60;52.10;;;;;;4399569;32;20170;-76
2021/03/31 11:31:44;;;;;;;1.08;1.02;;;25.80;51.70;;;;;;4398276;32;20082;-75
2021/03/31 11:34:10;;;;;;;17.50;2.47;;;25.90;51.00;;;;;;4398061;32;20058;-75
2021/03/31 11:36:35;;;;;;;0.77;0.77;;;26.30;50.30;;;;;;4399378;32;20061;-75
2021/03/31 11:39:02;;;;;;;1.25;0.93;;;26.30;49.20;;;;;;4398211;32;20062;-75
2021/03/31 11:41:27;;;;;;;3.15;1.45;;;26.50;48.60;;;;;;4398149;32;20050;-75
2021/03/31 11:43:54;;;;;;;1.20;1.12;;;26.60;48.50;;;;;;4398316;32;20135;-75
2021/03/31 11:46:19;;;;;;;1.52;1.42;;;26.70;47.20;;;;;;4394171;32;20059;-76
2021/03/31 11:48:45;;;;;;;2.37;1.50;;;27.00;48.20;;;;;;4398100;32;20705;-75
2021/03/31 11:51:10;;;;;;;0.98;0.73;;;27.10;47.40;;;;;;4398960;32;20071;-75
2021/03/31 11:53:36;;;;;;;0.70;0.70;;;27.40;46.90;;;;;;4398084;32;20125;-76
2021/03/31 11:56:02;;;;;;;6.03;1.35;;;27.00;46.50;;;;;;4397133;32;20062;-75
2021/03/31 11:58:28;;;;;;;3.60;2.03;;;26.90;47.40;;;;;;4397999;32;20074;-76
2021/03/31 12:01:00;;;;;;;1.30;0.73;;;27.40;47.00;;;;;;4398351;32;20579;-75
2021/03/31 12:03:25;;;;;;;1.50;1.20;;;27.70;45.20;;;;;;4397270;32;20094;-76
2021/03/31 12:05:51;;;;;;;0.80;0.80;;;27.70;45.20;;;;;;4397582;32;20059;-75
2021/03/31 12:08:18;;;;;;;4.97;1.17;;;28.00;45.10;;;;;;4387317;32;20062;-76
2021/03/31 12:10:43;;;;;;;1.10;1.00;;;28.20;41.40;;;;;;4395528;32;20417;-75
2021/03/31 12:13:09;;;;;;;1.40;0.77;;;28.00;41.60;;;;;;4399997;32;20074;-75
2021/03/31 12:15:34;;;;;;;2.08;1.20;;;27.20;41.30;;;;;;4400439;32;20078;-75
2021/03/31 12:18:00;;;;;;;0.82;0.77;;;27.50;42.50;;;;;;4400635;32;20082;-75
2021/03/31 12:20:26;;;;;;;0.65;0.65;;;27.90;42.40;;;;;;4400075;32;20108;-75
2021/03/31 12:22:51;;;;;;;0.65;0.65;;;28.30;41.00;;;;;;4401541;32;20089;-77
2021/03/31 12:25:19;;;;;;;0.52;0.52;;;28.60;41.90;;;;;;4399560;32;20062;-76
2021/03/31 12:27:47;;;;;;;2.67;0.82;;;29.10;41.60;;;;;;4400364;32;20065;-76
2021/03/31 12:30:14;;;;;;;0.52;0.47;;;29.20;40.50;;;;;;4399698;32;20070;-75
2021/03/31 12:32:40;;;;;;;1.15;1.05;;;28.90;41.50;;;;;;4401672;32;20058;-76
2021/03/31 12:35:07;;;;;;;2.28;1.35;;;28.80;39.70;;;;;;4400373;32;20504;-76
2021/03/31 12:37:33;;;;;;;0.40;0.40;;;28.00;40.80;;;;;;4399404;32;20078;-77
2021/03/31 12:39:58;;;;;;;2.15;0.80;;;28.60;40.80;;;;;;4399891;32;20401;-77
2021/03/31 12:42:25;;;;;;;1.00;0.75;;;29.10;40.20;;;;;;4400486;32;20105;-77
2021/03/31 12:44:51;;;;;;;0.80;0.77;;;29.10;40.70;;;;;;4400791;32;20078;-77
2021/03/31 12:47:19;;;;;;;1.35;0.93;;;29.50;39.80;;;;;;4401114;32;21085;-75
2021/03/31 12:49:48;;;;;;;1.45;1.12;;;29.30;40.30;;;;;;4400070;32;20073;-76
2021/03/31 12:52:16;;;;;;;1.40;1.20;;;29.70;39.30;;;;;;4400254;32;20069;-76
2021/03/31 12:57:12;;;;;;;0.45;0.40;;;29.70;37.70;;;;;;4400461;32;20121;-75
2021/03/31 12:59:37;;;;;;;0.82;0.82;;;30.20;36.70;;;;;;4401684;32;20539;-77
2021/03/31 13:02:03;;;;;;;0.68;0.65;;;30.40;35.50;;;;;;4401376;32;20144;-76
2021/03/31 13:04:29;;;;;;;0.93;0.85;;;30.30;36.60;;;;;;4399663;32;20078;-76
2021/03/31 13:06:54;;;;;;;6.65;1.23;;;30.10;36.90;;;;;;4399635;32;20066;-76